-19.44C
пасмурно
пасмурно
Дата и времяТемператураДавление, мм рт.ст.Влажность, %Осадки
МинимумМаксимум
07.12.2022 05:00-18.52C-18.52C77397пасмурно
07.12.2022 08:00-17.99C-16.92C77396пасмурно
07.12.2022 11:00-17.92C-17.62C77297пасмурно
07.12.2022 14:00-15.95C-15.95C77095пасмурно
07.12.2022 17:00-15.44C-15.44C76994пасмурно
07.12.2022 20:00-16.26C-16.26C76893пасмурно
07.12.2022 23:00-17.03C-17.03C76693пасмурно
08.12.2022 02:00-16.36C-16.36C76590пасмурно
08.12.2022 05:00-15.38C-15.38C76390пасмурно
08.12.2022 08:00-14.13C-14.13C76295небольшой снег
08.12.2022 11:00-12.78C-12.78C76295небольшой снег
08.12.2022 14:00-11.74C-11.74C76295небольшой снег
08.12.2022 17:00-12.4C-12.4C76395небольшой снег
08.12.2022 20:00-15.35C-15.35C76398пасмурно
08.12.2022 23:00-15.6C-15.6C76397пасмурно
09.12.2022 02:00-14.78C-14.78C76396пасмурно
09.12.2022 05:00-14.24C-14.24C76296пасмурно
09.12.2022 08:00-14.43C-14.43C76296пасмурно
09.12.2022 11:00-13.39C-13.39C76396небольшой снег
09.12.2022 14:00-17.23C-17.23C76496небольшой снег
09.12.2022 17:00-20.63C-20.63C76597небольшой снег
09.12.2022 20:00-27.3C-27.3C76787пасмурно
09.12.2022 23:00-31.58C-31.58C76893облачно с прояснениями
10.12.2022 02:00-31.02C-31.02C76895небольшая облачность
10.12.2022 05:00-29.93C-29.93C76894небольшая облачность
10.12.2022 08:00-28.17C-28.17C76998переменная облачность
10.12.2022 11:00-25.89C-25.89C77197небольшая облачность
10.12.2022 14:00-25.97C-25.97C77294переменная облачность
10.12.2022 17:00-27.57C-27.57C77494переменная облачность
10.12.2022 20:00-28.01C-28.01C77496небольшая облачность
10.12.2022 23:00-28.49C-28.49C77697небольшая облачность
11.12.2022 02:00-29.71C-29.71C77799переменная облачность
11.12.2022 05:00-31.54C-31.54C778100облачно с прояснениями
11.12.2022 08:00-32.15C-32.15C779100переменная облачность
11.12.2022 11:00-30.11C-30.11C78099переменная облачность
11.12.2022 14:00-27.98C-27.98C77999переменная облачность
11.12.2022 17:00-25.46C-25.46C77897облачно с прояснениями
11.12.2022 20:00-22.34C-22.34C77491пасмурно
11.12.2022 23:00-17.98C-17.98C76997небольшой снег
12.12.2022 02:00-13.67C-13.67C76594небольшой снег
Дата и время наблюдения: 07.12.2022 03:34:01